Desert Lake Discharge




Date 2017 Panel Temperature (degC) 2017 Canal Conductivity (mS/m) 2017 Canal Flow (cfs) 2017 Canal Height (ft) 2017 Water Temperature (degC) 2017 Air Temperature (degF) 2017 Water Balance (pH) 2017 Canal Conductivity in micro-Siemens (┬ÁS/cm)
12/01/2017 0.01 0.20 14.00
12/02/2017 0.01 0.21 14.00
12/03/2017 0.03 0.27 32.00
12/04/2017 0.05 0.30 48.00
12/05/2017 0.03 0.27 33.00
12/06/2017 0.03 0.29 33.00
12/07/2017 0.03 0.27 32.00
12/08/2017 0.03 0.28 30.00
12/10/2017 0.02 0.30 24.00
12/11/2017 0.04 0.29 35.00
12/12/2017 0.03 0.27 25.00
12/13/2017 0.03 0.30 33.00
12/14/2017 0.03 0.27 33.00
12/15/2017 0.02 0.23 22.00
12/16/2017 0.04 0.24 37.00
12/17/2017 0.02 0.20 17.00
12/18/2017 0.01 0.17 12.00
12/19/2017 0.01 0.16 6.00
12/20/2017 0.01 0.20 12.00
12/21/2017 0.03 0.18 31.00
12/22/2017 -0.01 0.14
12/23/2017 0.00 0.15 1.00
12/24/2017 0.02 0.14 16.00
12/25/2017 0.00 0.11
12/26/2017 -0.01 0.11
12/27/2017 -0.01 0.10
12/28/2017 -0.01 0.09
12/29/2017 0.00 0.11
12/30/2017 0.00 0.14
12/31/2017 0.01 0.15 9.00
Average 0.20
Maximum 0.30
Minimum 0.09
Total Volume (AF) 12.18